Login to view products. 
Tuesday, February 28, 2017 (00:58 UTC)
Al Bateen Executive Airport
ICAO Code: OMAD
IATA Code: AZI
  • METAR OMAD 280000Z 00000KT 8000 SCT025 17/14 Q1017 BECMG 5000 HZ=
  • TAF OMAD 272300Z 2800/0106 VRB02KT 8000 NSC PROB30 TEMPO 2800/2805 0400 FG VV001 BECMG 2805/2807 33011KT PROB30 TEMPO 0101/0105 VRB02KT 0200 FG VV///=